Pagrindinis puslapis
METAR-TAF:

METAR-TAF

Oro uostai :

Tabukas, Saudo Arabija

platuma: 28-22N, ilguma: 036-36E, Aukštis: 778 m

Dabartinis oras

Ataskaita buvo paskelbta 23 minutes, ne 22:00 UTC
Vėjas 4 kt iš Šiaurės
Temperatūra 27°C
Drėgmė 16%
Slėgis 1015 hPa
Matomumas 10 km arba daugiau
nėra debesų žemiau 1500 m ir nėra kamuolinių lietaus debesų

METAR: OETB 242200Z 35004KT CAVOK 27/M01 Q1015 NOSIG

Laikas: 01:23 (22:23 UTC)

Prognozė

Ataskaita buvo paskelbta 11 valandos ir 23 minutes, ne 11:00 UTC
Prognozė galioja nuo 24 metu 12 UTC su 25 metu 18 UTC
Vėjas 8 kt iš Rytų
Matomumas 10 km arba daugiau
nėra debesų žemiau 1500 m ir nėra kamuolinių lietaus debesų
Tapsmas
nuo 24 metu 20 UTC su 24 metu 22 UTC
Vėjas 3 kt nuo kintamojo kryptimis
Tapsmas
nuo 25 metu 06 UTC su 25 metu 08 UTC
Vėjas 8 kt iš Rytų

TAF: OETB 241100Z 2412/2518 09008KT CAVOK BECMG 2420/2422 VRB03KT BECMG 2506/2508 10008KT

Orai ataskaitas ir orų prognozės (METAR, TAF).

turimą stotys yra geltonos ir raudonos taškus žemėlapyje.

Perkelti pele per norėdami pamatyti stoties vardą.

Tada spustelėkite, norėdami matyti oro stebėjimo ir prognozės.

Norėdami pakeisti žemėlapį: spustelėkite ant žalios mygtukų su juodo kryžiaus žemyn,; žalią mygtuką su brūkšneliu, jei norite nutolinti; arba žalių rodyklių gretimoms žemėlapius.


METAR-TAF: